createdAt,value
2023-05-16T00:01:45.725Z,36.75
2023-05-16T00:04:16.269Z,36.84
2023-05-16T00:06:46.800Z,38.70
2023-05-16T00:09:17.352Z,39.27
2023-05-16T00:11:49.777Z,38.31
2023-05-16T00:14:21.921Z,38.95
2023-05-16T00:16:52.569Z,38.74
2023-05-16T00:19:23.024Z,38.42
2023-05-16T00:21:54.713Z,39.06
2023-05-16T00:24:25.457Z,38.92
2023-05-16T00:26:55.991Z,39.14
2023-05-16T00:29:26.851Z,38.53
2023-05-16T00:31:57.605Z,39.35
2023-05-16T00:34:28.175Z,39.19
2023-05-16T00:36:58.732Z,38.78
2023-05-16T00:39:29.525Z,38.91
2023-05-16T00:42:00.401Z,38.09
2023-05-16T00:44:31.446Z,39.03
2023-05-16T00:47:04.147Z,38.67
2023-05-16T00:49:33.744Z,38.74
2023-05-16T00:52:04.977Z,38.69
2023-05-16T00:54:37.680Z,39.41
2023-05-16T00:57:09.800Z,39.15
2023-05-16T00:59:40.235Z,39.53
2023-05-16T01:02:10.901Z,39.30
2023-05-16T01:04:42.186Z,37.99
2023-05-16T01:07:12.704Z,36.87
2023-05-16T01:09:46.060Z,36.48
2023-05-16T01:12:31.529Z,36.52
2023-05-16T01:15:08.880Z,38.04
2023-05-16T01:17:55.476Z,36.42
2023-05-16T01:20:40.094Z,37.55
2023-05-16T01:24:05.167Z,38.56
2023-05-16T01:26:37.934Z,38.07
2023-05-16T01:29:10.195Z,36.95
2023-05-16T01:31:40.681Z,37.28
2023-05-16T01:34:11.125Z,35.87
2023-05-16T01:36:59.581Z,36.01
2023-05-16T01:39:44.695Z,34.65
2023-05-16T01:42:21.215Z,34.68
2023-05-16T01:45:07.052Z,34.53
2023-05-16T01:47:40.442Z,35.13
2023-05-16T01:50:22.332Z,34.51
2023-05-16T01:52:58.590Z,33.47
2023-05-16T01:55:53.519Z,33.32
2023-05-16T01:58:27.164Z,33.47
2023-05-16T02:01:01.992Z,35.64
2023-05-16T02:03:36.899Z,34.76
2023-05-16T02:06:07.530Z,35.07
2023-05-16T02:08:37.963Z,35.13
2023-05-16T02:11:08.318Z,35.57
2023-05-16T02:13:39.074Z,34.95
2023-05-16T02:16:09.885Z,36.76
2023-05-16T02:18:41.109Z,36.10
2023-05-16T02:21:11.533Z,36.44
2023-05-16T02:23:42.180Z,35.37
2023-05-16T02:26:12.591Z,36.31
2023-05-16T02:28:42.995Z,37.67
2023-05-16T02:31:13.430Z,36.31
2023-05-16T02:33:43.846Z,35.13
2023-05-16T02:36:14.342Z,36.96
2023-05-16T02:38:45.536Z,34.54
2023-05-16T02:41:16.021Z,34.44
2023-05-16T02:43:47.096Z,34.74
2023-05-16T02:46:28.827Z,35.12
2023-05-16T02:48:59.526Z,34.88
2023-05-16T02:51:30.784Z,34.73
2023-05-16T02:54:04.230Z,38.00
2023-05-16T02:56:34.609Z,39.10
2023-05-16T02:59:05.793Z,38.21
2023-05-16T03:01:36.404Z,38.15
2023-05-16T03:04:08.141Z,38.08
2023-05-16T03:06:38.561Z,37.97
2023-05-16T03:09:09.360Z,36.16
2023-05-16T03:11:39.791Z,38.68
2023-05-16T03:14:10.907Z,39.70
2023-05-16T03:16:43.146Z,39.45
2023-05-16T03:19:13.052Z,39.44
2023-05-16T03:21:43.444Z,39.49
2023-05-16T03:24:15.834Z,39.47
2023-05-16T03:26:46.860Z,39.00
2023-05-16T03:29:17.192Z,38.36
2023-05-16T03:31:47.659Z,38.64
2023-05-16T03:34:17.994Z,38.67
2023-05-16T03:36:48.418Z,36.97
2023-05-16T03:39:19.567Z,38.61
2023-05-16T03:41:50.048Z,38.47
2023-05-16T03:44:20.638Z,38.38
2023-05-16T03:46:50.832Z,37.81
2023-05-16T03:49:22.520Z,38.10
2023-05-16T03:51:52.863Z,38.11
2023-05-16T03:54:24.255Z,37.95
2023-05-16T03:56:54.758Z,37.91
2023-05-16T03:59:25.133Z,37.94
2023-05-16T04:01:55.623Z,37.49
2023-05-16T04:04:26.088Z,38.09
2023-05-16T04:06:56.467Z,37.32
2023-05-16T04:09:45.172Z,38.12
2023-05-16T04:12:15.546Z,37.85
2023-05-16T04:14:46.018Z,38.17
2023-05-16T04:17:16.493Z,38.36
2023-05-16T04:19:46.903Z,38.12
2023-05-16T04:22:17.513Z,37.89
2023-05-16T04:24:47.921Z,37.74
2023-05-16T04:27:18.394Z,37.26
2023-05-16T04:29:48.780Z,37.47
2023-05-16T04:32:19.813Z,38.61
2023-05-16T04:34:51.575Z,38.04
2023-05-16T04:37:22.418Z,38.61
2023-05-16T04:39:53.060Z,38.04
2023-05-16T04:42:23.808Z,38.46
2023-05-16T04:44:54.192Z,37.86
2023-05-16T04:47:24.678Z,38.10
2023-05-16T04:49:55.195Z,37.87
2023-05-16T04:52:25.825Z,38.36
2023-05-16T04:54:56.456Z,38.82
2023-05-16T04:57:26.954Z,38.42
2023-05-16T04:59:57.600Z,38.10
2023-05-16T05:02:28.871Z,37.71
2023-05-16T05:04:59.324Z,37.99
2023-05-16T05:07:30.718Z,38.05
2023-05-16T05:10:01.373Z,37.85
2023-05-16T05:12:32.314Z,37.30
2023-05-16T05:15:02.788Z,37.60
2023-05-16T05:17:33.247Z,37.62
2023-05-16T05:20:08.394Z,37.14
2023-05-16T05:22:38.813Z,37.09
2023-05-16T05:25:09.860Z,37.21
2023-05-16T05:27:40.214Z,37.87
2023-05-16T05:30:11.296Z,37.34
2023-05-16T05:32:59.840Z,38.04
2023-05-16T05:35:30.509Z,38.28
2023-05-16T05:38:01.351Z,38.58
2023-05-16T05:40:31.734Z,38.18
2023-05-16T05:43:02.141Z,38.17
2023-05-16T05:45:32.631Z,38.08
2023-05-16T05:48:03.152Z,37.87
2023-05-16T05:50:33.656Z,37.37
2023-05-16T05:53:04.305Z,37.99
2023-05-16T05:55:34.887Z,38.17
2023-05-16T05:58:07.174Z,37.78
2023-05-16T06:00:37.290Z,35.94
2023-05-16T06:03:08.184Z,36.73
2023-05-16T06:05:38.813Z,37.20
2023-05-16T06:08:09.646Z,36.69
2023-05-16T06:10:40.083Z,36.86
2023-05-16T06:13:10.917Z,37.34
2023-05-16T06:15:41.594Z,37.95
2023-05-16T06:18:12.055Z,37.58
2023-05-16T06:20:42.434Z,36.48
2023-05-16T06:23:12.916Z,37.81
2023-05-16T06:25:43.289Z,38.19
2023-05-16T06:28:13.669Z,38.31
2023-05-16T06:30:44.065Z,37.72
2023-05-16T06:33:14.463Z,37.51
2023-05-16T06:35:44.954Z,38.09
2023-05-16T06:38:15.452Z,38.24
2023-05-16T06:40:45.821Z,38.47
2023-05-16T06:43:16.623Z,38.30
2023-05-16T06:45:50.110Z,38.18
2023-05-16T06:48:21.374Z,38.67
2023-05-16T06:50:55.371Z,37.71
2023-05-16T06:53:25.864Z,37.99
2023-05-16T06:55:56.636Z,38.39
2023-05-16T06:58:27.049Z,38.24
2023-05-16T07:00:57.649Z,38.37
2023-05-16T07:03:28.243Z,38.72
2023-05-16T07:05:59.620Z,37.96
2023-05-16T07:08:29.890Z,37.10
2023-05-16T07:11:00.578Z,38.25
2023-05-16T07:13:31.035Z,37.95
2023-05-16T07:16:01.493Z,38.38
2023-05-16T07:18:31.835Z,38.36
2023-05-16T07:21:02.297Z,38.20
2023-05-16T07:23:32.770Z,38.04
2023-05-16T07:26:03.183Z,38.16
2023-05-16T07:28:33.601Z,37.78
2023-05-16T07:31:04.227Z,37.50
2023-05-16T07:33:34.627Z,37.65
2023-05-16T07:36:16.226Z,38.31
2023-05-16T07:38:47.226Z,37.68
2023-05-16T07:41:17.599Z,38.30
2023-05-16T07:43:48.068Z,38.48
2023-05-16T07:46:18.558Z,37.42
2023-05-16T07:48:48.889Z,38.13
2023-05-16T07:51:19.582Z,38.90
2023-05-16T07:53:50.026Z,38.35
2023-05-16T07:56:20.743Z,38.44
2023-05-16T07:58:52.030Z,37.87
2023-05-16T08:01:40.413Z,38.66
2023-05-16T08:04:10.837Z,38.21
2023-05-16T08:06:44.841Z,38.43
2023-05-16T08:09:15.435Z,38.16
2023-05-16T08:11:48.867Z,37.82
2023-05-16T08:14:20.338Z,37.56
2023-05-16T08:16:50.986Z,38.74
2023-05-16T08:19:21.519Z,38.21
2023-05-16T08:21:52.195Z,37.42
2023-05-16T08:24:22.852Z,38.32
2023-05-16T08:26:56.246Z,39.68
2023-05-16T08:29:27.847Z,38.63
2023-05-16T08:31:58.233Z,38.78
2023-05-16T08:34:28.734Z,38.29
2023-05-16T08:36:59.178Z,38.44
2023-05-16T08:39:29.569Z,39.20
2023-05-16T08:42:00.504Z,39.36
2023-05-16T08:44:31.456Z,38.36
2023-05-16T08:47:19.352Z,38.98
2023-05-16T08:49:54.409Z,37.02
2023-05-16T08:52:32.198Z,37.46
2023-05-16T08:55:11.843Z,37.49
2023-05-16T08:57:43.552Z,38.92
2023-05-16T09:00:15.086Z,38.70
2023-05-16T09:02:48.823Z,38.80
2023-05-16T09:05:20.037Z,37.40
2023-05-16T09:07:50.766Z,37.56
2023-05-16T09:10:21.446Z,37.86
2023-05-16T09:12:52.755Z,37.38
2023-05-16T09:15:23.353Z,38.01
2023-05-16T09:17:54.156Z,37.84
2023-05-16T09:20:24.653Z,37.92
2023-05-16T09:22:57.992Z,36.85
2023-05-16T09:25:34.109Z,38.43
2023-05-16T09:28:04.868Z,38.32
2023-05-16T09:30:36.999Z,38.62
2023-05-16T09:33:09.761Z,38.74
2023-05-16T09:35:45.259Z,38.49
2023-05-16T09:38:20.051Z,37.32
2023-05-16T09:40:50.514Z,39.02
2023-05-16T09:43:24.646Z,38.00
2023-05-16T09:45:56.878Z,38.86
2023-05-16T09:48:30.059Z,38.33
2023-05-16T09:51:05.592Z,38.84
2023-05-16T09:53:37.041Z,38.68
2023-05-16T09:56:13.896Z,38.67
2023-05-16T09:58:48.788Z,37.65
2023-05-16T10:01:19.411Z,38.44
2023-05-16T10:03:50.026Z,37.86
2023-05-16T10:06:21.196Z,38.05
2023-05-16T10:08:53.305Z,38.59
2023-05-16T10:11:24.061Z,39.03
2023-05-16T10:13:57.653Z,38.71
2023-05-16T10:16:28.965Z,38.43
2023-05-16T10:19:00.266Z,37.87
2023-05-16T10:21:54.114Z,38.52
2023-05-16T10:24:31.374Z,38.23
2023-05-16T10:27:02.039Z,37.92
2023-05-16T10:29:43.036Z,38.86
2023-05-16T10:32:26.927Z,38.04
2023-05-16T10:34:57.777Z,37.79
2023-05-16T10:37:29.529Z,37.86
2023-05-16T10:40:04.014Z,37.82
2023-05-16T10:42:35.578Z,36.85
2023-05-16T10:45:26.374Z,37.58
2023-05-16T10:47:57.979Z,37.68
2023-05-16T10:50:47.478Z,37.25
2023-05-16T10:53:25.802Z,37.58
2023-05-16T10:56:02.380Z,37.53
2023-05-16T10:58:44.056Z,36.67
2023-05-16T11:01:33.320Z,37.38
2023-05-16T11:04:06.288Z,36.77
2023-05-16T11:06:45.778Z,37.26
2023-05-16T11:09:27.004Z,37.49
2023-05-16T11:12:07.948Z,36.65
2023-05-16T11:14:49.094Z,36.92
2023-05-16T11:17:23.933Z,37.23
2023-05-16T11:20:02.297Z,37.22
2023-05-16T11:22:35.163Z,38.12
2023-05-16T11:25:10.823Z,37.88
2023-05-16T11:27:49.534Z,37.88
2023-05-16T11:30:23.456Z,37.82
2023-05-16T11:32:54.161Z,37.88
2023-05-16T11:35:24.642Z,37.52
2023-05-16T11:37:55.261Z,37.26
2023-05-16T11:40:28.420Z,36.86
2023-05-16T11:43:07.309Z,37.53
2023-05-16T11:45:38.467Z,36.22
2023-05-16T11:48:10.175Z,37.19
2023-05-16T11:50:42.921Z,37.24
2023-05-16T11:53:13.342Z,37.49
2023-05-16T11:55:44.685Z,37.87
2023-05-16T11:58:34.676Z,37.55
2023-05-16T12:01:11.177Z,37.19
2023-05-16T12:03:42.491Z,37.21
2023-05-16T12:06:13.139Z,37.14
2023-05-16T12:08:53.036Z,38.06
2023-05-16T12:11:25.961Z,38.02
2023-05-16T12:13:56.821Z,37.48
2023-05-16T12:16:27.590Z,37.93
2023-05-16T12:18:58.414Z,37.80
2023-05-16T12:21:29.124Z,37.72
2023-05-16T12:24:00.441Z,37.83
2023-05-16T12:26:34.227Z,38.02
2023-05-16T12:29:07.310Z,38.10
2023-05-16T12:31:43.883Z,37.97
2023-05-16T12:34:25.084Z,38.11
2023-05-16T12:36:56.155Z,37.68
2023-05-16T12:39:26.714Z,37.79
2023-05-16T12:41:57.213Z,37.82
2023-05-16T12:44:32.798Z,37.46
2023-05-16T12:47:04.271Z,37.41
2023-05-16T12:49:35.924Z,37.77
2023-05-16T12:52:07.495Z,38.36
2023-05-16T12:54:37.961Z,38.07
2023-05-16T12:57:11.722Z,37.23
2023-05-16T12:59:42.173Z,38.31
2023-05-16T13:02:13.651Z,37.78
2023-05-16T13:04:45.214Z,38.11
2023-05-16T13:07:15.694Z,37.82
2023-05-16T13:09:46.216Z,37.87
2023-05-16T13:12:17.322Z,37.66
2023-05-16T13:14:47.916Z,38.09
2023-05-16T13:17:18.250Z,37.69
2023-05-16T13:19:49.096Z,37.56
2023-05-16T13:22:19.726Z,37.92
2023-05-16T13:24:51.110Z,38.00
2023-05-16T13:27:21.498Z,38.11
2023-05-16T13:32:45.862Z,37.43
2023-05-16T13:35:16.416Z,37.85
2023-05-16T13:37:47.432Z,38.14
2023-05-16T13:40:18.869Z,37.94
2023-05-16T13:42:49.395Z,37.20
2023-05-16T13:45:20.276Z,37.74
2023-05-16T13:47:50.761Z,38.22
2023-05-16T13:50:22.120Z,37.57
2023-05-16T13:52:53.722Z,37.36
2023-05-16T13:55:24.639Z,37.12
2023-05-16T13:57:55.140Z,37.44
2023-05-16T14:00:43.588Z,37.15
2023-05-16T14:03:15.644Z,37.87
2023-05-16T14:05:46.292Z,37.36
2023-05-16T14:08:16.676Z,37.77
2023-05-16T14:10:47.295Z,37.94
2023-05-16T14:13:17.870Z,38.50
2023-05-16T14:15:48.563Z,38.38
2023-05-16T14:18:19.110Z,37.85
2023-05-16T14:20:49.910Z,38.31
2023-05-16T14:23:20.256Z,38.20
2023-05-16T14:25:50.998Z,38.27
2023-05-16T14:28:21.660Z,38.40
2023-05-16T14:30:52.150Z,38.02
2023-05-16T14:33:22.947Z,38.74
2023-05-16T14:35:53.629Z,38.57
2023-05-16T14:38:24.006Z,38.23
2023-05-16T14:40:54.461Z,37.67
2023-05-16T14:43:24.960Z,38.54
2023-05-16T14:45:55.381Z,38.18
2023-05-16T14:48:25.809Z,37.81
2023-05-16T14:50:56.285Z,37.57
2023-05-16T14:53:26.951Z,37.82
2023-05-16T14:55:57.436Z,38.39
2023-05-16T14:58:28.563Z,37.88
2023-05-16T15:00:59.141Z,37.94
2023-05-16T15:03:32.027Z,37.80
2023-05-16T15:06:04.233Z,37.18
2023-05-16T15:08:34.462Z,37.98
2023-05-16T15:11:04.928Z,37.68
2023-05-16T15:13:35.294Z,37.77
2023-05-16T15:16:05.961Z,37.55
2023-05-16T15:18:36.477Z,38.13
2023-05-16T15:21:07.252Z,38.30
2023-05-16T15:23:38.089Z,37.96
2023-05-16T15:26:08.511Z,37.88
2023-05-16T15:28:39.007Z,38.36
2023-05-16T15:31:09.583Z,37.91
2023-05-16T15:33:40.003Z,37.97
2023-05-16T15:36:10.719Z,38.20
2023-05-16T15:38:45.886Z,38.14
2023-05-16T15:41:32.079Z,37.76
2023-05-16T15:44:07.734Z,37.81
2023-05-16T15:46:38.256Z,37.89
2023-05-16T15:49:10.894Z,37.65
2023-05-16T15:51:40.768Z,37.72
2023-05-16T15:54:11.689Z,37.54
2023-05-16T15:56:42.156Z,38.18
2023-05-16T15:59:12.877Z,37.52
2023-05-16T16:01:43.457Z,37.85
2023-05-16T16:04:13.987Z,37.50
2023-05-16T16:06:44.416Z,37.48
2023-05-16T16:09:14.852Z,38.03
2023-05-16T16:11:45.391Z,38.04
2023-05-16T16:14:15.854Z,37.81
2023-05-16T16:16:46.939Z,37.64
2023-05-16T16:19:17.774Z,37.76
2023-05-16T16:21:48.675Z,37.45
2023-05-16T16:24:19.302Z,37.82
2023-05-16T16:26:49.833Z,37.82
2023-05-16T16:29:20.505Z,38.27
2023-05-16T16:31:51.001Z,37.70
2023-05-16T16:34:23.275Z,37.95
2023-05-16T16:36:54.042Z,37.50
2023-05-16T16:39:24.579Z,37.53
2023-05-16T16:41:55.330Z,37.78
2023-05-16T16:44:25.745Z,37.33
2023-05-16T16:46:56.490Z,37.91
2023-05-16T16:49:27.162Z,37.91
2023-05-16T16:51:57.778Z,37.92
2023-05-16T16:54:29.559Z,37.48
2023-05-16T16:56:59.955Z,37.88
2023-05-16T16:59:30.390Z,37.75
2023-05-16T17:02:01.028Z,38.13
2023-05-16T17:04:31.487Z,37.17
2023-05-16T17:07:01.938Z,37.65
2023-05-16T17:09:32.324Z,37.80
2023-05-16T17:12:09.834Z,37.52
2023-05-16T17:14:40.266Z,37.58
2023-05-16T17:17:10.748Z,37.98
2023-05-16T17:19:41.261Z,37.38
2023-05-16T17:22:12.134Z,37.57
2023-05-16T17:24:42.683Z,37.53
2023-05-16T17:27:14.200Z,37.73
2023-05-16T17:29:44.719Z,37.55
2023-05-16T17:32:15.117Z,37.59
2023-05-16T17:34:45.865Z,37.98
2023-05-16T17:37:16.528Z,37.76
2023-05-16T17:39:46.976Z,37.90
2023-05-16T17:42:17.613Z,38.02
2023-05-16T17:44:48.082Z,37.37
2023-05-16T17:47:20.861Z,37.45
2023-05-16T17:49:51.838Z,37.32
2023-05-16T17:52:23.661Z,37.52
2023-05-16T17:54:54.424Z,37.48
2023-05-16T17:57:24.832Z,37.44
2023-05-16T17:59:55.432Z,37.70
2023-05-16T18:02:25.981Z,37.37
2023-05-16T18:04:56.402Z,37.19
2023-05-16T18:07:30.811Z,37.91
2023-05-16T18:10:01.343Z,38.42
2023-05-16T18:12:31.931Z,37.55
2023-05-16T18:15:02.355Z,37.61
2023-05-16T18:17:33.168Z,37.99
2023-05-16T18:20:11.035Z,37.53
2023-05-16T18:22:42.298Z,37.63
2023-05-16T18:25:13.295Z,37.84
2023-05-16T18:27:44.028Z,38.14
2023-05-16T18:30:15.116Z,37.72
2023-05-16T18:32:45.825Z,37.81
2023-05-16T18:35:16.377Z,37.42
2023-05-16T18:37:47.335Z,37.57
2023-05-16T18:40:19.499Z,37.36
2023-05-16T18:42:49.946Z,37.52
2023-05-16T18:45:21.008Z,37.41
2023-05-16T18:47:51.496Z,37.57
2023-05-16T18:50:22.232Z,37.60
2023-05-16T18:52:52.776Z,37.53
2023-05-16T18:55:41.232Z,37.30
2023-05-16T18:58:12.319Z,37.41
2023-05-16T19:00:42.804Z,37.36
2023-05-16T19:03:14.737Z,37.68
2023-05-16T19:05:45.390Z,37.36
2023-05-16T19:08:15.986Z,37.51
2023-05-16T19:10:46.578Z,37.52
2023-05-16T19:13:17.019Z,37.62
2023-05-16T19:15:48.026Z,37.39
2023-05-16T19:18:19.525Z,37.97
2023-05-16T19:20:50.074Z,37.59
2023-05-16T19:23:38.736Z,37.47
2023-05-16T19:26:09.192Z,37.19
2023-05-16T19:28:39.659Z,37.40
2023-05-16T19:31:10.600Z,37.36
2023-05-16T19:33:40.996Z,37.57
2023-05-16T19:36:11.506Z,37.31
2023-05-16T19:38:42.159Z,37.61
2023-05-16T19:41:12.748Z,37.40
2023-05-16T19:43:43.245Z,37.49
2023-05-16T19:46:13.558Z,37.81
2023-05-16T19:48:44.156Z,37.56
2023-05-16T19:51:14.668Z,37.83
2023-05-16T19:53:45.426Z,37.49
2023-05-16T19:56:15.940Z,37.42
2023-05-16T19:58:46.584Z,37.26
2023-05-16T20:01:17.138Z,37.12
2023-05-16T20:03:48.149Z,37.00
2023-05-16T20:06:18.542Z,37.30
2023-05-16T20:08:49.067Z,37.36
2023-05-16T20:11:19.444Z,37.06
2023-05-16T20:13:49.877Z,37.47
2023-05-16T20:16:22.089Z,37.40
2023-05-16T20:18:52.065Z,36.90
2023-05-16T20:21:22.357Z,37.39
2023-05-16T20:23:52.579Z,36.93
2023-05-16T20:26:23.901Z,37.15
2023-05-16T20:28:54.376Z,37.23
2023-05-16T20:31:25.158Z,37.26
2023-05-16T20:33:55.488Z,37.41
2023-05-16T20:36:26.106Z,37.51
2023-05-16T20:38:56.691Z,37.48
2023-05-16T20:41:44.958Z,37.73
2023-05-16T20:44:16.132Z,38.10
2023-05-16T20:46:46.616Z,37.54
2023-05-16T20:49:17.460Z,37.67
2023-05-16T20:51:47.982Z,38.14
2023-05-16T20:54:18.562Z,37.58
2023-05-16T20:56:49.108Z,37.29
2023-05-16T20:59:19.536Z,37.38
2023-05-16T21:01:50.005Z,37.45
2023-05-16T21:04:21.191Z,37.79
2023-05-16T21:06:51.819Z,37.02
2023-05-16T21:09:22.514Z,37.32
2023-05-16T21:11:52.920Z,36.82
2023-05-16T21:14:23.297Z,37.06
2023-05-16T21:16:56.608Z,37.69
2023-05-16T21:19:27.329Z,37.49
2023-05-16T21:21:57.814Z,37.47
2023-05-16T21:24:28.519Z,37.52
2023-05-16T21:26:59.158Z,36.96
2023-05-16T21:29:29.626Z,37.63
2023-05-16T21:32:00.263Z,37.38
2023-05-16T21:34:30.701Z,37.20
2023-05-16T21:37:01.528Z,37.46
2023-05-16T21:39:32.020Z,37.18
2023-05-16T21:42:02.889Z,37.26
2023-05-16T21:44:33.297Z,37.68
2023-05-16T21:47:03.813Z,37.12
2023-05-16T21:49:34.667Z,37.47
2023-05-16T21:52:07.176Z,36.91
2023-05-16T21:54:38.135Z,37.09
2023-05-16T21:57:08.730Z,37.51
2023-05-16T21:59:39.217Z,37.33
2023-05-16T22:02:09.767Z,37.95
2023-05-16T22:04:40.262Z,37.47
2023-05-16T22:07:10.719Z,37.13
2023-05-16T22:09:41.188Z,37.64
2023-05-16T22:12:11.838Z,37.64
2023-05-16T22:14:42.263Z,37.57
2023-05-16T22:17:12.740Z,37.35
2023-05-16T22:19:43.965Z,36.88
2023-05-16T22:22:14.796Z,37.64
2023-05-16T22:24:45.684Z,38.05
2023-05-16T22:27:16.309Z,38.31
2023-05-16T22:29:46.825Z,38.10
2023-05-16T22:32:17.312Z,37.36
2023-05-16T22:34:47.687Z,38.62
2023-05-16T22:37:18.079Z,38.28
2023-05-16T22:39:48.672Z,38.29
2023-05-16T22:42:19.139Z,38.75
2023-05-16T22:44:52.224Z,37.97
2023-05-16T22:47:22.645Z,38.28
2023-05-16T22:49:53.181Z,37.59
2023-05-16T22:52:23.799Z,37.22
2023-05-16T22:54:54.466Z,38.06
2023-05-16T22:57:25.146Z,38.33
2023-05-16T22:59:55.588Z,38.18
2023-05-16T23:02:26.126Z,37.68
2023-05-16T23:04:56.856Z,37.68
2023-05-16T23:07:27.520Z,38.46
2023-05-16T23:09:58.125Z,38.46
2023-05-16T23:12:28.576Z,38.30
2023-05-16T23:14:59.785Z,37.20
2023-05-16T23:17:30.396Z,36.32
2023-05-16T23:20:01.133Z,35.90
2023-05-16T23:22:31.625Z,35.66
2023-05-16T23:25:02.301Z,35.02
2023-05-16T23:27:33.340Z,35.63
2023-05-16T23:30:03.844Z,34.27
2023-05-16T23:32:34.272Z,35.47
2023-05-16T23:35:04.898Z,34.76
2023-05-16T23:37:35.339Z,36.07
2023-05-16T23:40:06.102Z,35.14
2023-05-16T23:42:38.295Z,37.37
2023-05-16T23:45:09.332Z,36.77
2023-05-16T23:47:39.901Z,36.06
2023-05-16T23:50:28.732Z,36.71
2023-05-16T23:52:59.155Z,35.52
2023-05-16T23:55:30.058Z,36.71
2023-05-16T23:58:00.703Z,36.63
